sensor_id;sensor_type;location;lat;lon;timestamp;pressure;altitude;pressure_sealevel;temperature;humidity
50652;BME280;66928;52.086;5.240;2023-04-08T05:42:20;102312.0;;;7.76;95.56
50652;BME280;66928;52.086;5.240;2023-04-08T05:43:56;102310.0;;;7.74;95.31
50652;BME280;66928;52.086;5.240;2023-04-08T05:47:08;102316.0;;;7.7;94.63
50652;BME280;66928;52.086;5.240;2023-04-08T05:48:44;102321.0;;;7.6;94.77
50652;BME280;66928;52.086;5.240;2023-04-08T05:50:20;102332.0;;;7.56;95.08
50652;BME280;66928;52.086;5.240;2023-04-08T05:53:32;102330.0;;;7.39;95.5
50652;BME280;66928;52.086;5.240;2023-04-08T05:55:09;102334.0;;;7.42;94.78
50652;BME280;66928;52.086;5.240;2023-04-08T05:56:45;102334.0;;;7.56;93.95
50652;BME280;66928;52.086;5.240;2023-04-08T05:59:57;102334.0;;;7.62;93.9
50652;BME280;66928;52.086;5.240;2023-04-08T06:01:33;102336.0;;;7.56;94.29
50652;BME280;66928;52.086;5.240;2023-04-08T06:03:09;102339.0;;;7.76;93.73
50652;BME280;66928;52.086;5.240;2023-04-08T06:04:46;102341.0;;;7.95;93.13
50652;BME280;66928;52.086;5.240;2023-04-08T06:07:58;102338.0;;;7.79;93.2
50652;BME280;66928;52.086;5.240;2023-04-08T06:09:34;102340.0;;;7.96;92.39
50652;BME280;66928;52.086;5.240;2023-04-08T06:11:10;102340.0;;;7.79;93.21
50652;BME280;66928;52.086;5.240;2023-04-08T06:14:23;102337.0;;;7.75;92.57
50652;BME280;66928;52.086;5.240;2023-04-08T06:16:09;102343.0;;;7.6;92.78
50652;BME280;66928;52.086;5.240;2023-04-08T06:17:46;102342.0;;;7.68;92.43
50652;BME280;66928;52.086;5.240;2023-04-08T06:19:22;102338.0;;;7.85;92.05
50652;BME280;66928;52.086;5.240;2023-04-08T06:22:34;102348.0;;;7.57;92.15
50652;BME280;66928;52.086;5.240;2023-04-08T06:24:10;102351.0;;;7.61;92.82
50652;BME280;66928;52.086;5.240;2023-04-08T06:25:46;102350.0;;;7.79;92.08
50652;BME280;66928;52.086;5.240;2023-04-08T06:28:59;102350.0;;;7.86;90.9
50652;BME280;66928;52.086;5.240;2023-04-08T06:30:35;102359.0;;;7.26;92.19
50652;BME280;66928;52.086;5.240;2023-04-08T06:32:11;102362.0;;;7.61;91.78
50652;BME280;66928;52.086;5.240;2023-04-08T06:35:23;102363.0;;;7.78;91.3
50652;BME280;66928;52.086;5.240;2023-04-08T06:36:59;102370.0;;;7.76;90.74
50652;BME280;66928;52.086;5.240;2023-04-08T06:38:36;102374.0;;;7.52;91.08
50652;BME280;66928;52.086;5.240;2023-04-08T06:41:48;102380.0;;;7.59;90.99
50652;BME280;66928;52.086;5.240;2023-04-08T06:43:24;102377.0;;;7.7;90.42
50652;BME280;66928;52.086;5.240;2023-04-08T06:45:00;102378.0;;;7.85;89.85
50652;BME280;66928;52.086;5.240;2023-04-08T06:46:36;102381.0;;;7.94;89.13
50652;BME280;66928;52.086;5.240;2023-04-08T06:49:49;102385.0;;;8.09;88.73
50652;BME280;66928;52.086;5.240;2023-04-08T06:51:25;102382.0;;;8.16;87.92
50652;BME280;66928;52.086;5.240;2023-04-08T06:53:01;102386.0;;;8.31;87.09
50652;BME280;66928;52.086;5.240;2023-04-08T06:56:13;102388.0;;;8.39;86.48
50652;BME280;66928;52.086;5.240;2023-04-08T06:57:49;102390.0;;;8.41;85.4
50652;BME280;66928;52.086;5.240;2023-04-08T06:59:26;102392.0;;;8.16;85.53
50652;BME280;66928;52.086;5.240;2023-04-08T07:02:38;102393.0;;;8.5;85.78
50652;BME280;66928;52.086;5.240;2023-04-08T07:04:14;102388.0;;;8.64;84.84
50652;BME280;66928;52.086;5.240;2023-04-08T07:05:51;102396.0;;;8.5;82.57
50652;BME280;66928;52.086;5.240;2023-04-08T07:09:03;102396.0;;;8.41;81.86
50652;BME280;66928;52.086;5.240;2023-04-08T07:10:39;102408.99999999999;;;8.25;82.67
50652;BME280;66928;52.086;5.240;2023-04-08T07:12:15;102411.99999999999;;;8.35;81.97
50652;BME280;66928;52.086;5.240;2023-04-08T07:13:51;102413.00000000001;;;8.11;81.59
50652;BME280;66928;52.086;5.240;2023-04-08T07:17:03;102409.99999999999;;;8.31;81.41
50652;BME280;66928;52.086;5.240;2023-04-08T07:18:40;102413.00000000001;;;8.49;80.99
50652;BME280;66928;52.086;5.240;2023-04-08T07:20:16;102417.0;;;8.34;81.36
50652;BME280;66928;52.086;5.240;2023-04-08T07:23:28;102417.0;;;8.45;81.39
50652;BME280;66928;52.086;5.240;2023-04-08T07:25:05;102422.0;;;8.31;82.13
50652;BME280;66928;52.086;5.240;2023-04-08T07:26:42;102424.0;;;8.09;82.59
50652;BME280;66928;52.086;5.240;2023-04-08T07:29:54;102429.0;;;8.38;81.94
50652;BME280;66928;52.086;5.240;2023-04-08T07:31:30;102432.0;;;8.47;81.52
50652;BME280;66928;52.086;5.240;2023-04-08T07:33:06;102431.0;;;8.44;81.78
50652;BME280;66928;52.086;5.240;2023-04-08T07:34:43;102429.0;;;8.31;81.66
50652;BME280;66928;52.086;5.240;2023-04-08T07:37:55;102423.0;;;8.27;81.87
50652;BME280;66928;52.086;5.240;2023-04-08T07:39:31;102426.0;;;8.43;82.38
50652;BME280;66928;52.086;5.240;2023-04-08T07:41:07;102425.0;;;8.59;82.19
50652;BME280;66928;52.086;5.240;2023-04-08T07:44:19;102428.0;;;8.76;81.55
50652;BME280;66928;52.086;5.240;2023-04-08T07:45:59;102430.0;;;8.76;80.55
50652;BME280;66928;52.086;5.240;2023-04-08T07:47:35;102427.0;;;8.81;80.13
50652;BME280;66928;52.086;5.240;2023-04-08T07:50:47;102432.0;;;8.86;79.92
50652;BME280;66928;52.086;5.240;2023-04-08T07:52:23;102439.00000000001;;;8.64;79.59
50652;BME280;66928;52.086;5.240;2023-04-08T07:53:59;102433.99999999999;;;8.92;79.22
50652;BME280;66928;52.086;5.240;2023-04-08T07:55:36;102444.0;;;8.83;78.3
50652;BME280;66928;52.086;5.240;2023-04-08T07:58:48;102442.0;;;8.92;77.83
50652;BME280;66928;52.086;5.240;2023-04-08T08:00:24;102441.00000000001;;;9.05;77.49
50652;BME280;66928;52.086;5.240;2023-04-08T08:02:00;102450.0;;;9.09;77.34
50652;BME280;66928;52.086;5.240;2023-04-08T08:05:13;102445.0;;;9.32;76.73
50652;BME280;66928;52.086;5.240;2023-04-08T08:06:49;102446.0;;;9.44;76.17
50652;BME280;66928;52.086;5.240;2023-04-08T08:08:25;102445.0;;;9.39;75.92
50652;BME280;66928;52.086;5.240;2023-04-08T08:11:37;102448.0;;;9.5;76.03
50652;BME280;66928;52.086;5.240;2023-04-08T08:13:13;102446.0;;;9.4;77.05
50652;BME280;66928;52.086;5.240;2023-04-08T08:14:50;102448.0;;;9.57;76.73
50652;BME280;66928;52.086;5.240;2023-04-08T08:18:03;102445.0;;;9.47;76.88
50652;BME280;66928;52.086;5.240;2023-04-08T08:19:39;102446.0;;;9.47;77.33
50652;BME280;66928;52.086;5.240;2023-04-08T08:21:15;102446.0;;;9.48;77.75
50652;BME280;66928;52.086;5.240;2023-04-08T08:22:52;102448.0;;;9.56;77.17
50652;BME280;66928;52.086;5.240;2023-04-08T08:26:05;102452.0;;;9.52;76.33
50652;BME280;66928;52.086;5.240;2023-04-08T08:27:42;102449.0;;;9.63;75.27
50652;BME280;66928;52.086;5.240;2023-04-08T08:29:18;102452.0;;;9.81;74.83
50652;BME280;66928;52.086;5.240;2023-04-08T08:32:31;102452.0;;;9.75;75.16
50652;BME280;66928;52.086;5.240;2023-04-08T08:34:07;102450.0;;;9.86;74.61
50652;BME280;66928;52.086;5.240;2023-04-08T08:35:43;102457.0;;;9.83;73.94
50652;BME280;66928;52.086;5.240;2023-04-08T08:38:55;102455.0;;;9.82;73.55
50652;BME280;66928;52.086;5.240;2023-04-08T08:40:32;102458.99999999999;;;9.76;73.55
50652;BME280;66928;52.086;5.240;2023-04-08T08:42:17;102465.00000000001;;;9.86;72.72
50652;BME280;66928;52.086;5.240;2023-04-08T08:43:55;102459.99999999999;;;9.74;72.83
50652;BME280;66928;52.086;5.240;2023-04-08T08:47:08;102461.99999999999;;;9.96;72.42
50652;BME280;66928;52.086;5.240;2023-04-08T08:48:44;102467.0;;;9.85;71.09
50652;BME280;66928;52.086;5.240;2023-04-08T08:50:21;102465.00000000001;;;9.9;70.72
50652;BME280;66928;52.086;5.240;2023-04-08T08:53:35;102463.00000000001;;;9.97;70.37
50652;BME280;66928;52.086;5.240;2023-04-08T08:55:12;102464.00000000001;;;10.03;69.61
50652;BME280;66928;52.086;5.240;2023-04-08T08:56:48;102466.00000000001;;;10.06;69.72
50652;BME280;66928;52.086;5.240;2023-04-08T08:58:25;102472.0;;;10.23;69.33
50652;BME280;66928;52.086;5.240;2023-04-08T09:01:38;102473.0;;;10.24;68.86
50652;BME280;66928;52.086;5.240;2023-04-08T09:03:16;102479.0;;;10.3;68.31
50652;BME280;66928;52.086;5.240;2023-04-08T09:04:58;102476.0;;;10.23;67.44
50652;BME280;66928;52.086;5.240;2023-04-08T09:08:22;102474.0;;;10.23;67.47
50652;BME280;66928;52.086;5.240;2023-04-08T09:09:59;102477.0;;;10.35;67.23
50652;BME280;66928;52.086;5.240;2023-04-08T09:11:35;102474.0;;;10.53;67.34
50652;BME280;66928;52.086;5.240;2023-04-08T09:13:12;102486.99999999999;;;10.53;65.89
50652;BME280;66928;52.086;5.240;2023-04-08T09:16:25;102481.0;;;10.52;65.92
50652;BME280;66928;52.086;5.240;2023-04-08T09:18:01;102479.0;;;10.58;63.82
50652;BME280;66928;52.086;5.240;2023-04-08T09:19:38;102481.0;;;10.75;64.08
50652;BME280;66928;52.086;5.240;2023-04-08T09:22:57;102482.0;;;10.86;63.45
50652;BME280;66928;52.086;5.240;2023-04-08T09:24:33;102481.0;;;11.02;62.97
50652;BME280;66928;52.086;5.240;2023-04-08T09:26:12;102483.0;;;11.05;61.62
50652;BME280;66928;52.086;5.240;2023-04-08T09:27:50;102483.0;;;11.04;61.48
50652;BME280;66928;52.086;5.240;2023-04-08T09:31:17;102486.99999999999;;;10.77;60.64
50652;BME280;66928;52.086;5.240;2023-04-08T09:32:54;102483.0;;;11.03;59.87
50652;BME280;66928;52.086;5.240;2023-04-08T09:34:31;102486.99999999999;;;11.12;59.36
50652;BME280;66928;52.086;5.240;2023-04-08T09:36:07;102483.0;;;11.16;58.22
50652;BME280;66928;52.086;5.240;2023-04-08T09:39:21;102483.0;;;11.16;58.83
50652;BME280;66928;52.086;5.240;2023-04-08T09:40:57;102488.00000000001;;;11.23;59.18
50652;BME280;66928;52.086;5.240;2023-04-08T09:42:38;102488.00000000001;;;11.32;58.57
50652;BME280;66928;52.086;5.240;2023-04-08T09:45:54;102486.99999999999;;;11.34;58.73
50652;BME280;66928;52.086;5.240;2023-04-08T09:47:39;102490.00000000001;;;11.32;57.83
50652;BME280;66928;52.086;5.240;2023-04-08T09:49:27;102490.00000000001;;;11.38;58.1
50652;BME280;66928;52.086;5.240;2023-04-08T09:51:05;102491.00000000001;;;11.43;58.75
50652;BME280;66928;52.086;5.240;2023-04-08T09:54:23;102494.0;;;11.42;59.18
50652;BME280;66928;52.086;5.240;2023-04-08T09:56:10;102488.00000000001;;;11.37;57.87
50652;BME280;66928;52.086;5.240;2023-04-08T09:57:50;102489.00000000001;;;11.37;58.97
50652;BME280;66928;52.086;5.240;2023-04-08T09:59:30;102493.0;;;11.33;58.67
50652;BME280;66928;52.086;5.240;2023-04-08T10:01:12;102492.0;;;11.43;57.73
50652;BME280;66928;52.086;5.240;2023-04-08T10:04:38;102490.00000000001;;;11.5;57.24
50652;BME280;66928;52.086;5.240;2023-04-08T10:06:16;102491.00000000001;;;11.46;57.2
50652;BME280;66928;52.086;5.240;2023-04-08T10:07:55;102491.00000000001;;;11.49;56.88
50652;BME280;66928;52.086;5.240;2023-04-08T10:09:31;102482.0;;;11.62;56.56
50652;BME280;66928;52.086;5.240;2023-04-08T10:12:45;102476.0;;;11.77;55.93
50652;BME280;66928;52.086;5.240;2023-04-08T10:14:21;102486.99999999999;;;11.84;56.26
50652;BME280;66928;52.086;5.240;2023-04-08T10:16:29;102481.0;;;11.9;53.49
50652;BME280;66928;52.086;5.240;2023-04-08T10:18:37;102477.0;;;12.08;54.13
50652;BME280;66928;52.086;5.240;2023-04-08T10:20:40;102483.0;;;12.21;52.77
50652;BME280;66928;52.086;5.240;2023-04-08T10:22:49;102486.99999999999;;;12.27;55.34
50652;BME280;66928;52.086;5.240;2023-04-08T10:24:25;102486.99999999999;;;12.33;54.35
50652;BME280;66928;52.086;5.240;2023-04-08T10:28:23;102486.99999999999;;;12.33;52.25
50652;BME280;66928;52.086;5.240;2023-04-08T10:29:59;102479.0;;;12.42;53.33
50652;BME280;66928;52.086;5.240;2023-04-08T10:31:39;102477.0;;;12.49;54.43
50652;BME280;66928;52.086;5.240;2023-04-08T10:33:16;102483.0;;;12.59;54.45
50652;BME280;66928;52.086;5.240;2023-04-08T10:34:54;102482.0;;;12.57;53.92
50652;BME280;66928;52.086;5.240;2023-04-08T10:38:06;102477.0;;;12.67;52.54
50652;BME280;66928;52.086;5.240;2023-04-08T10:39:48;102473.0;;;12.69;56.57
50652;BME280;66928;52.086;5.240;2023-04-08T10:41:24;102465.00000000001;;;12.89;54.3
50652;BME280;66928;52.086;5.240;2023-04-08T10:43:00;102469.0;;;12.85;52.2
50652;BME280;66928;52.086;5.240;2023-04-08T10:46:12;102456.0;;;12.98;54.95
50652;BME280;66928;52.086;5.240;2023-04-08T10:47:48;102458.0;;;12.9;50.57
50652;BME280;66928;52.086;5.240;2023-04-08T10:49:31;102459.99999999999;;;12.95;54.51
50652;BME280;66928;52.086;5.240;2023-04-08T10:54:22;102459.99999999999;;;13.16;55.15
50652;BME280;66928;52.086;5.240;2023-04-08T10:56:06;102466.00000000001;;;13.04;54.77
50652;BME280;66928;52.086;5.240;2023-04-08T10:57:43;102454.0;;;13.22;53.92
50652;BME280;66928;52.086;5.240;2023-04-08T11:01:04;102463.00000000001;;;13.15;52.77
50652;BME280;66928;52.086;5.240;2023-04-08T11:02:40;102458.99999999999;;;13.24;51.94
50652;BME280;66928;52.086;5.240;2023-04-08T11:04:17;102466.00000000001;;;13.18;53.64
50652;BME280;66928;52.086;5.240;2023-04-08T11:07:39;102466.00000000001;;;13.16;51.46
50652;BME280;66928;52.086;5.240;2023-04-08T11:09:15;102464.00000000001;;;13.28;51.19
50652;BME280;66928;52.086;5.240;2023-04-08T11:10:52;102464.00000000001;;;13.02;45.92
50652;BME280;66928;52.086;5.240;2023-04-08T11:12:30;102465.00000000001;;;13.27;49.24
50652;BME280;66928;52.086;5.240;2023-04-08T11:15:43;102455.0;;;13.42;50.85
50652;BME280;66928;52.086;5.240;2023-04-08T11:17:20;102458.0;;;13.37;50.41
50652;BME280;66928;52.086;5.240;2023-04-08T11:18:57;102448.0;;;13.3;49.89
50652;BME280;66928;52.086;5.240;2023-04-08T11:22:11;102458.99999999999;;;13.34;48.71
50652;BME280;66928;52.086;5.240;2023-04-08T11:23:48;102454.0;;;13.36;50.08
50652;BME280;66928;52.086;5.240;2023-04-08T11:25:24;102458.0;;;12.88;51.92
50652;BME280;66928;52.086;5.240;2023-04-08T11:27:00;102452.0;;;12.94;52.58
50652;BME280;66928;52.086;5.240;2023-04-08T11:30:12;102453.0;;;13.22;52.22
50652;BME280;66928;52.086;5.240;2023-04-08T11:31:49;102453.0;;;13.22;50.77
50652;BME280;66928;52.086;5.240;2023-04-08T11:33:25;102454.0;;;13.35;49.36
50652;BME280;66928;52.086;5.240;2023-04-08T11:36:40;102452.0;;;13.46;48.21
50652;BME280;66928;52.086;5.240;2023-04-08T11:38:21;102453.0;;;13.42;47.54
50652;BME280;66928;52.086;5.240;2023-04-08T11:39:58;102447.0;;;13.54;47.34
50652;BME280;66928;52.086;5.240;2023-04-08T11:41:35;102448.0;;;13.44;46.2
50652;BME280;66928;52.086;5.240;2023-04-08T11:44:49;102445.0;;;13.76;45.95
50652;BME280;66928;52.086;5.240;2023-04-08T11:46:25;102447.0;;;13.68;45.28
50652;BME280;66928;52.086;5.240;2023-04-08T11:48:07;102445.0;;;13.74;44.72
50652;BME280;66928;52.086;5.240;2023-04-08T11:51:21;102452.0;;;13.63;42.25
50652;BME280;66928;52.086;5.240;2023-04-08T11:52:57;102454.0;;;13.53;40.94
50652;BME280;66928;52.086;5.240;2023-04-08T11:54:39;102447.0;;;13.69;40.78
50652;BME280;66928;52.086;5.240;2023-04-08T11:56:16;102444.0;;;13.82;41.05
50652;BME280;66928;52.086;5.240;2023-04-08T11:59:30;102449.0;;;13.77;40.56
50652;BME280;66928;52.086;5.240;2023-04-08T12:01:06;102452.0;;;13.85;40.54
50652;BME280;66928;52.086;5.240;2023-04-08T12:02:42;102453.0;;;13.89;39.75
50652;BME280;66928;52.086;5.240;2023-04-08T12:05:54;102452.0;;;13.82;41.27
50652;BME280;66928;52.086;5.240;2023-04-08T12:13:14;102458.0;;;13.98;43.34
50652;BME280;66928;52.086;5.240;2023-04-08T12:16:26;102456.0;;;13.99;42.93
50652;BME280;66928;52.086;5.240;2023-04-08T12:18:02;102464.00000000001;;;13.8;40.75
50652;BME280;66928;52.086;5.240;2023-04-08T12:19:39;102456.0;;;14.0;41.95
50652;BME280;66928;52.086;5.240;2023-04-08T12:21:15;102452.0;;;13.89;44.47
50652;BME280;66928;52.086;5.240;2023-04-08T12:24:27;102453.0;;;14.15;43.01
50652;BME280;66928;52.086;5.240;2023-04-08T12:26:03;102451.0;;;14.09;42.64
50652;BME280;66928;52.086;5.240;2023-04-08T12:27:39;102449.0;;;14.18;44.09
50652;BME280;66928;52.086;5.240;2023-04-08T12:30:52;102443.0;;;14.12;42.54
50652;BME280;66928;52.086;5.240;2023-04-08T12:32:28;102446.0;;;14.01;42.97
50652;BME280;66928;52.086;5.240;2023-04-08T12:34:04;102442.0;;;13.97;43.4
50652;BME280;66928;52.086;5.240;2023-04-08T12:37:16;102444.0;;;14.05;42.98
50652;BME280;66928;52.086;5.240;2023-04-08T12:38:52;102451.0;;;14.11;38.15
50652;BME280;66928;52.086;5.240;2023-04-08T12:40:29;102446.0;;;14.14;40.32
50652;BME280;66928;52.086;5.240;2023-04-08T12:43:41;102445.0;;;14.09;42.14
50652;BME280;66928;52.086;5.240;2023-04-08T12:45:17;102447.0;;;14.21;43.41
50652;BME280;66928;52.086;5.240;2023-04-08T12:46:53;102442.0;;;14.29;42.92
50652;BME280;66928;52.086;5.240;2023-04-08T12:48:29;102453.0;;;14.35;43.98
50652;BME280;66928;52.086;5.240;2023-04-08T12:51:42;102449.0;;;14.31;41.21
50652;BME280;66928;52.086;5.240;2023-04-08T12:53:19;102446.0;;;14.26;41.7
50652;BME280;66928;52.086;5.240;2023-04-08T12:54:55;102446.0;;;14.25;42.04
50652;BME280;66928;52.086;5.240;2023-04-08T12:58:08;102442.0;;;14.36;43.19
50652;BME280;66928;52.086;5.240;2023-04-08T12:59:44;102444.0;;;14.52;43.08
50652;BME280;66928;52.086;5.240;2023-04-08T13:01:20;102446.0;;;14.27;43.42
50652;BME280;66928;52.086;5.240;2023-04-08T13:04:33;102444.0;;;14.24;45.02
50652;BME280;66928;52.086;5.240;2023-04-08T13:06:09;102455.0;;;14.15;46.4
50652;BME280;66928;52.086;5.240;2023-04-08T13:07:45;102453.0;;;14.12;45.07
50652;BME280;66928;52.086;5.240;2023-04-08T13:09:21;102447.0;;;14.18;44.98
50652;BME280;66928;52.086;5.240;2023-04-08T13:12:33;102448.0;;;14.18;43.9
50652;BME280;66928;52.086;5.240;2023-04-08T13:14:10;102444.0;;;14.25;44.64
50652;BME280;66928;52.086;5.240;2023-04-08T13:15:46;102442.0;;;14.37;42.7
50652;BME280;66928;52.086;5.240;2023-04-08T13:18:58;102453.0;;;14.39;41.37
50652;BME280;66928;52.086;5.240;2023-04-08T13:20:34;102444.0;;;14.24;43.17
50652;BME280;66928;52.086;5.240;2023-04-08T13:22:10;102449.0;;;14.27;43.69
50652;BME280;66928;52.086;5.240;2023-04-08T13:25:23;102451.0;;;14.22;42.7
50652;BME280;66928;52.086;5.240;2023-04-08T13:26:59;102445.0;;;14.23;41.29
50652;BME280;66928;52.086;5.240;2023-04-08T13:28:35;102441.00000000001;;;14.16;41.66
50652;BME280;66928;52.086;5.240;2023-04-08T13:31:48;102448.0;;;14.12;41.21
50652;BME280;66928;52.086;5.240;2023-04-08T13:33:24;102444.0;;;14.18;41.22
50652;BME280;66928;52.086;5.240;2023-04-08T13:35:00;102445.0;;;14.26;40.6
50652;BME280;66928;52.086;5.240;2023-04-08T13:36:37;102444.0;;;14.31;41.12
50652;BME280;66928;52.086;5.240;2023-04-08T13:39:49;102443.0;;;14.42;40.81
50652;BME280;66928;52.086;5.240;2023-04-08T13:41:25;102440.00000000001;;;14.34;40.35
50652;BME280;66928;52.086;5.240;2023-04-08T13:43:01;102438.00000000001;;;14.38;40.22
50652;BME280;66928;52.086;5.240;2023-04-08T13:46:13;102438.00000000001;;;14.43;38.87
50652;BME280;66928;52.086;5.240;2023-04-08T13:47:50;102442.0;;;14.45;41.24
50652;BME280;66928;52.086;5.240;2023-04-08T13:49:26;102430.0;;;14.38;42.15
50652;BME280;66928;52.086;5.240;2023-04-08T13:52:38;102432.0;;;14.29;42.2
50652;BME280;66928;52.086;5.240;2023-04-08T13:54:14;102428.0;;;14.35;40.9
50652;BME280;66928;52.086;5.240;2023-04-08T13:55:50;102421.0;;;14.14;39.67
50652;BME280;66928;52.086;5.240;2023-04-08T13:59:03;102427.0;;;14.07;39.85
50652;BME280;66928;52.086;5.240;2023-04-08T14:00:39;102427.0;;;14.04;39.68
50652;BME280;66928;52.086;5.240;2023-04-08T14:02:15;102441.00000000001;;;14.14;39.22
50652;BME280;66928;52.086;5.240;2023-04-08T14:03:51;102432.0;;;14.0;39.37
50652;BME280;66928;52.086;5.240;2023-04-08T14:07:03;102436.99999999999;;;13.92;39.28
50652;BME280;66928;52.086;5.240;2023-04-08T14:08:40;102425.0;;;13.97;40.0
50652;BME280;66928;52.086;5.240;2023-04-08T14:10:16;102429.0;;;13.96;42.29
50652;BME280;66928;52.086;5.240;2023-04-08T14:13:28;102427.0;;;14.03;40.17
50652;BME280;66928;52.086;5.240;2023-04-08T14:15:05;102423.0;;;14.11;37.64
50652;BME280;66928;52.086;5.240;2023-04-08T14:16:41;102431.0;;;14.12;39.83
50652;BME280;66928;52.086;5.240;2023-04-08T14:19:53;102422.0;;;14.15;41.08
50652;BME280;66928;52.086;5.240;2023-04-08T14:21:30;102430.0;;;14.33;41.73
50652;BME280;66928;52.086;5.240;2023-04-08T14:23:06;102418.0;;;14.42;37.76
50652;BME280;66928;52.086;5.240;2023-04-08T14:24:42;102429.0;;;14.41;37.71
50652;BME280;66928;52.086;5.240;2023-04-08T14:27:54;102419.0;;;14.46;40.62
50652;BME280;66928;52.086;5.240;2023-04-08T14:29:30;102419.0;;;14.32;41.96
50652;BME280;66928;52.086;5.240;2023-04-08T14:31:07;102411.99999999999;;;14.46;43.02
50652;BME280;66928;52.086;5.240;2023-04-08T14:34:19;102415.00000000001;;;14.27;44.35
50652;BME280;66928;52.086;5.240;2023-04-08T14:35:55;102417.0;;;14.21;43.38
50652;BME280;66928;52.086;5.240;2023-04-08T14:37:31;102420.0;;;14.19;45.38
50652;BME280;66928;52.086;5.240;2023-04-08T14:40:43;102413.00000000001;;;14.09;46.63
50652;BME280;66928;52.086;5.240;2023-04-08T14:42:19;102411.99999999999;;;14.23;48.19
50652;BME280;66928;52.086;5.240;2023-04-08T14:43:56;102405.0;;;14.19;48.78
50652;BME280;66928;52.086;5.240;2023-04-08T14:47:08;102405.0;;;14.12;49.52
50652;BME280;66928;52.086;5.240;2023-04-08T14:48:44;102413.00000000001;;;14.23;49.39
50652;BME280;66928;52.086;5.240;2023-04-08T14:50:20;102408.0;;;14.11;49.45
50652;BME280;66928;52.086;5.240;2023-04-08T14:51:56;102408.0;;;14.02;49.81
50652;BME280;66928;52.086;5.240;2023-04-08T14:55:09;102402.0;;;13.94;49.83
50652;BME280;66928;52.086;5.240;2023-04-08T14:56:45;102405.0;;;13.92;50.08
50652;BME280;66928;52.086;5.240;2023-04-08T14:58:21;102403.0;;;14.04;49.25
50652;BME280;66928;52.086;5.240;2023-04-08T15:01:34;102400.0;;;14.02;49.63
50652;BME280;66928;52.086;5.240;2023-04-08T15:03:10;102408.0;;;14.11;48.58
50652;BME280;66928;52.086;5.240;2023-04-08T15:04:46;102405.0;;;14.18;48.2
50652;BME280;66928;52.086;5.240;2023-04-08T15:07:59;102406.0;;;13.96;48.54
50652;BME280;66928;52.086;5.240;2023-04-08T15:09:35;102416.00000000001;;;14.08;47.3
50652;BME280;66928;52.086;5.240;2023-04-08T15:11:11;102408.99999999999;;;13.97;47.67
50652;BME280;66928;52.086;5.240;2023-04-08T15:12:47;102411.99999999999;;;14.07;46.94
50652;BME280;66928;52.086;5.240;2023-04-08T15:15:59;102406.0;;;14.25;46.24
50652;BME280;66928;52.086;5.240;2023-04-08T15:17:35;102407.0;;;14.3;46.77
50652;BME280;66928;52.086;5.240;2023-04-08T15:19:12;102405.0;;;14.26;46.21
50652;BME280;66928;52.086;5.240;2023-04-08T15:22:24;102406.0;;;13.96;46.01
50652;BME280;66928;52.086;5.240;2023-04-08T15:24:00;102404.0;;;14.06;48.08
50652;BME280;66928;52.086;5.240;2023-04-08T15:25:37;102404.0;;;14.05;48.78
50652;BME280;66928;52.086;5.240;2023-04-08T15:28:48;102403.0;;;13.89;49.33
50652;BME280;66928;52.086;5.240;2023-04-08T15:30:25;102408.0;;;13.9;48.47
50652;BME280;66928;52.086;5.240;2023-04-08T15:32:01;102407.0;;;13.86;48.49
50652;BME280;66928;52.086;5.240;2023-04-08T15:35:13;102408.99999999999;;;13.83;48.83
50652;BME280;66928;52.086;5.240;2023-04-08T15:36:49;102409.99999999999;;;13.89;48.46
50652;BME280;66928;52.086;5.240;2023-04-08T15:40:02;102417.0;;;14.0;48.16
50652;BME280;66928;52.086;5.240;2023-04-08T15:43:14;102413.00000000001;;;13.83;45.2
50652;BME280;66928;52.086;5.240;2023-04-08T15:44:50;102407.0;;;13.85;44.13
50652;BME280;66928;52.086;5.240;2023-04-08T15:46:26;102409.99999999999;;;13.86;44.22
50652;BME280;66928;52.086;5.240;2023-04-08T15:49:38;102413.00000000001;;;13.98;44.84
50652;BME280;66928;52.086;5.240;2023-04-08T15:51:14;102413.00000000001;;;13.97;44.79
50652;BME280;66928;52.086;5.240;2023-04-08T15:52:51;102405.0;;;14.0;45.24
50652;BME280;66928;52.086;5.240;2023-04-08T15:56:03;102406.0;;;14.1;44.39
50652;BME280;66928;52.086;5.240;2023-04-08T15:57:39;102407.0;;;14.05;43.61
50652;BME280;66928;52.086;5.240;2023-04-08T15:59:15;102406.0;;;14.01;45.41
50652;BME280;66928;52.086;5.240;2023-04-08T16:02:27;102409.99999999999;;;14.12;44.91
50652;BME280;66928;52.086;5.240;2023-04-08T16:04:04;102414.00000000001;;;14.0;43.7
50652;BME280;66928;52.086;5.240;2023-04-08T16:05:41;102408.0;;;14.03;42.47
50652;BME280;66928;52.086;5.240;2023-04-08T16:07:17;102405.0;;;14.04;42.22
50652;BME280;66928;52.086;5.240;2023-04-08T16:10:30;102411.99999999999;;;14.02;42.1
50652;BME280;66928;52.086;5.240;2023-04-08T16:12:06;102409.99999999999;;;14.07;41.09
50652;BME280;66928;52.086;5.240;2023-04-08T16:13:42;102409.99999999999;;;14.13;41.4
50652;BME280;66928;52.086;5.240;2023-04-08T16:16:55;102413.00000000001;;;14.08;41.29
50652;BME280;66928;52.086;5.240;2023-04-08T16:18:31;102408.99999999999;;;14.01;41.21
50652;BME280;66928;52.086;5.240;2023-04-08T16:20:08;102413.00000000001;;;14.01;41.56
50652;BME280;66928;52.086;5.240;2023-04-08T16:23:20;102417.0;;;13.88;42.19
50652;BME280;66928;52.086;5.240;2023-04-08T16:24:57;102413.00000000001;;;14.06;42.61
50652;BME280;66928;52.086;5.240;2023-04-08T16:26:33;102416.00000000001;;;14.13;41.98
50652;BME280;66928;52.086;5.240;2023-04-08T16:28:09;102411.99999999999;;;14.09;42.35
50652;BME280;66928;52.086;5.240;2023-04-08T16:31:21;102406.0;;;13.97;43.24
50652;BME280;66928;52.086;5.240;2023-04-08T16:32:57;102404.0;;;14.12;42.56
50652;BME280;66928;52.086;5.240;2023-04-08T16:34:33;102407.0;;;14.12;42.62
50652;BME280;66928;52.086;5.240;2023-04-08T16:37:45;102406.0;;;14.09;42.07
50652;BME280;66928;52.086;5.240;2023-04-08T16:39:22;102401.0;;;13.98;42.56